Bookmark and Share
Track history (hours):
 

Scout

More information available from US FCC via Universal Licensing System and Coast Guard Vessel Documentation Center.

Last reported at 2014-Apr-22 12:15 UTC. Time now 2014-Apr-23 07:00 UTC.
Position N 33°45' W 118°17'.

; draft 5.6 m.

Type: Tug. MMSI: 366764730.

NotesDate/timePositionNaut miles runAvg speedWind from/ knotsBaromVisibWave heightAir tempDewpointWater temp
2014-Apr-22 12:15N 33°45' W 118°17'3 3.6
2014-Apr-22 11:25N 33°43' W 118°15'2 2.5
2014-Apr-22 10:29N 33°44' W 118°17'0 0.0
2014-Apr-22 09:11N 33°44' W 118°17'0 0.0
2014-Apr-22 07:33N 33°44' W 118°17'0 0.0
2014-Apr-22 06:30N 33°44' W 118°17'0 0.0
2014-Apr-22 05:33N 33°44' W 118°17'0 0.0
2014-Apr-22 04:31N 33°44' W 118°17'0 0.0
2014-Apr-22 03:33N 33°44' W 118°17'0 0.0
2014-Apr-22 02:33N 33°44' W 118°17'2 2.4
2014-Apr-22 01:33N 33°43' W 118°14'2 2.5
2014-Apr-22 00:33N 33°45' W 118°12'0 0.2
2014-Apr-21 23:33N 33°45' W 118°13'0 0.3
2014-Apr-21 22:33N 33°45' W 118°13'0 0.0
2014-Apr-21 21:33N 33°45' W 118°13'1 0.6
2014-Apr-21 20:26N 33°44' W 118°13'1 0.8
2014-Apr-21 19:15N 33°45' W 118°13'3 3.4
2014-Apr-21 18:19N 33°44' W 118°17'0 0.1
2014-Apr-21 17:32N 33°44' W 118°17'0 0.0
2014-Apr-21 16:33N 33°44' W 118°17'0 0.0
2014-Apr-21 13:32N 33°44' W 118°17'0 0.0
2014-Apr-21 12:32N 33°44' W 118°17'1 1.4
2014-Apr-21 11:31N 33°44' W 118°15'1 1.2
2014-Apr-21 10:33N 33°43' W 118°15'2 2.0
2014-Apr-21 09:32N 33°44' W 118°17'0 0.0
2014-Apr-21 07:29N 33°44' W 118°17'0 0.0
2014-Apr-21 06:19N 33°44' W 118°17'0 0.0
2014-Apr-21 05:32N 33°44' W 118°17'0 0.0
2014-Apr-21 04:33N 33°44' W 118°17'0 0.0
2014-Apr-21 03:33N 33°44' W 118°17'0 0.0
2014-Apr-21 02:25N 33°44' W 118°17'0 0.0
2014-Apr-21 01:33N 33°44' W 118°17'0 0.0
2014-Apr-21 00:33N 33°44' W 118°17'0 0.0
2014-Apr-20 23:33N 33°44' W 118°17'0 0.0
2014-Apr-20 22:33N 33°44' W 118°17'0 0.0
2014-Apr-20 21:33N 33°44' W 118°17'1 0.0
2014-Apr-20 00:27N 33°45' W 118°17'1 1.0
2014-Apr-19 23:32N 33°44' W 118°17'0 0.0
2014-Apr-19 22:21N 33°44' W 118°17'0 0.0
2014-Apr-17 22:06N 33°44' W 118°17'0 0.0
2014-Apr-17 21:24N 33°44' W 118°17'0 0.0
2014-Apr-17 20:33N 33°44' W 118°17'0 0.0
2014-Apr-17 19:07N 33°44' W 118°17'0 0.0
2014-Apr-17 18:14N 33°44' W 118°17'3 1.0
2014-Apr-17 15:15N 33°45' W 118°13'0 0.0
2014-Apr-17 14:33N 33°45' W 118°13'0 0.0
2014-Apr-17 13:33N 33°45' W 118°13'0 0.2
2014-Apr-17 12:25N 33°45' W 118°13'1 1.1
2014-Apr-17 11:03N 33°44' W 118°13'2 3.0
2014-Apr-17 10:25N 33°44' W 118°16'1 0.2
2014-Apr-17 05:18N 33°44' W 118°17'0 0.0
2014-Apr-17 04:33N 33°44' W 118°17'2 2.4
2014-Apr-17 03:33N 33°43' W 118°14'3 2.5
2014-Apr-17 02:33N 33°45' W 118°13'2 1.5
2014-Apr-17 01:33N 33°44' W 118°12'0 0.3
2014-Apr-17 00:33N 33°44' W 118°13'3 3.4
2014-Apr-16 23:32N 33°44' W 118°17'0 0.0
2014-Apr-16 22:33N 33°44' W 118°17'0 0.2
2014-Apr-16 20:31N 33°44' W 118°17'1 0.5
2014-Apr-16 19:28N 33°43' W 118°16'1 0.5
2014-Apr-16 17:31N 33°44' W 118°17'3 1.6
2014-Apr-16 15:29N 33°46' W 118°13'1 0.8
2014-Apr-16 14:13N 33°45' W 118°13'0 0.0
2014-Apr-16 13:33N 33°45' W 118°13'0 0.0
2014-Apr-16 12:33N 33°45' W 118°13'1 0.5
2014-Apr-16 10:26N 33°46' W 118°14'2 2.2
2014-Apr-16 09:33N 33°45' W 118°16'0 0.0
2014-Apr-16 08:29N 33°45' W 118°16'0 0.0
2014-Apr-16 07:33N 33°45' W 118°16'0 0.0
2014-Apr-16 06:14N 33°45' W 118°16'0 0.0
2014-Apr-16 05:33N 33°45' W 118°16'0 0.0
2014-Apr-16 04:34N 33°45' W 118°16'0 0.0
2014-Apr-16 03:33N 33°45' W 118°16'0 0.0
2014-Apr-16 02:33N 33°45' W 118°16'0 0.0
2014-Apr-16 01:33N 33°45' W 118°16'0 0.0
2014-Apr-16 00:34N 33°45' W 118°16'0 0.0
2014-Apr-15 23:34N 33°45' W 118°16'4 3.9
2014-Apr-15 22:34N 33°44' W 118°12'4 4.0
2014-Apr-15 21:33N 33°45' W 118°17'0 0.1
2014-Apr-15 20:33N 33°45' W 118°17'1 1.2
2014-Apr-15 19:33N 33°43' W 118°16'1 1.1
2014-Apr-15 18:31N 33°44' W 118°17'1 0.2
2014-Apr-15 10:34N 33°44' W 118°15'1 1.2
2014-Apr-15 09:34N 33°43' W 118°15'2 2.2
2014-Apr-15 08:34N 33°44' W 118°12'0 0.4
2014-Apr-15 07:34N 33°45' W 118°12'4 3.6
2014-Apr-15 06:34N 33°44' W 118°17'0 0.0
2014-Apr-15 05:33N 33°44' W 118°17'0 0.0
2014-Apr-15 03:33N 33°44' W 118°17'0 0.0
2014-Apr-15 02:33N 33°44' W 118°17'0 0.0
2014-Apr-15 00:33N 33°44' W 118°17'2 0.8
2014-Apr-14 22:34N 33°46' W 118°16'0 0.2
2014-Apr-14 21:34N 33°46' W 118°16'1 1.4
2014-Apr-14 20:34N 33°44' W 118°17'0 0.0
2014-Apr-14 19:34N 33°44' W 118°17'0 0.0
2014-Apr-14 18:34N 33°44' W 118°17'0 0.0
2014-Apr-14 16:32N 33°44' W 118°17'  

Dump ship's entire track history

sailing weather and tide predictions

Scout — WCZ2046 — position and weather